< < Back
Terminal Aerodrome Forecast


Current Version              Previous Versions:   1  2  3  4  5  6  7  8  9  

Terminal Aerodrome Forecast

184
FTUS42 KMLB 191700 RRA
TAFMCO
TAF
KMCO 191742Z 1918/2018 06006KT P6SM VCSH SCT030 SCT110 OVC150
     FM192000 05008KT 6SM -RA SCT030 BKN060 OVC100
     FM200000 04006KT P6SM VCSH BKN030 OVC060
     FM201400 VRB04KT P6SM VCSH BKN030 OVC060=

Latest METAR

606
SAUS70 KWBC 192000 RRD
MTRMCO
METAR KMCO 191953Z 01008KT 10SM FEW031 SCT110 BKN150 OVC250 26/22 A2993
RMK AO2 RAE36 SLP133 P0000 T02610222


USA.gov is the U.S. government's official web portal to all federal, state and local government web resources and services.